Time;durP1;ratioP1;P1;durP2;ratioP2;P2;SDS_P1;SDS_P2;PMS_P1;PMS_P2;Temp;Humidity;BMP_temperature;BMP_pressure;BME280_temperature;BME280_humidity;BME280_pressure;Samples;Min_cycle;Max_cycle;Signal;HPM_P1;HPM_P2
2021/01/10 00:01:15;;;;;;;;;;;;;;;15.19;58.41;99975.34;4865039;29;1923;-67
2021/01/10 00:03:42;;;;;;;;;;;;;;;15.23;58.38;99977.72;4875241;29;1206;-67
2021/01/10 00:06:08;;;;;;;;;;;;;;;15.24;58.41;99986.44;4860568;29;1129;-64
2021/01/10 00:08:34;;;;;;;;;;;;;;;15.22;58.47;100001.44;4862232;29;1377;-64
2021/01/10 00:11:02;;;;;;;;;;;;;;;15.24;58.93;99986.44;4867774;29;1141;-66
2021/01/10 00:13:29;;;;;;;;;;;;;;;15.20;58.78;99995.41;4869353;29;1207;-67
2021/01/10 00:15:55;;;;;;;;;;;;;;;15.17;58.78;99985.06;4862509;29;1179;-67
2021/01/10 00:18:22;;;;;;;;;;;;;;;15.16;58.22;99968.50;4857905;29;1282;-66
2021/01/10 00:20:48;;;;;;;;;;;;;;;15.17;58.76;99985.06;4861572;29;1919;-65
2021/01/10 00:23:15;;;;;;;;;;;;;;;15.12;58.78;99971.34;4867135;29;1236;-66
2021/01/10 00:25:41;;;;;;;;;;;;;;;15.08;58.69;99965.44;4867797;29;1147;-65
2021/01/10 00:28:08;;;;;;;;;;;;;;;15.14;58.71;99970.34;4874923;29;1278;-65
2021/01/10 00:30:34;;;;;;;;;;;;;;;15.15;58.27;99951.06;4861419;29;1092;-64
2021/01/10 00:33:01;;;;;;;;;;;;;;;15.14;58.65;99933.63;4874856;29;1278;-65
2021/01/10 00:35:29;;;;;;;;;;;;;;;15.15;58.64;99929.22;4848913;29;1310;-66
2021/01/10 00:37:56;;;;;;;;;;;;;;;15.10;58.62;99939.13;4876655;29;1295;-65
2021/01/10 00:40:23;;;;;;;;;;;;;;;15.11;59.22;99956.53;4872762;29;1915;-66
2021/01/10 00:42:50;;;;;;;;;;;;;;;15.08;59.12;99957.56;4857924;29;1269;-66
2021/01/10 00:45:17;;;;;;;;;;;;;;;15.13;58.61;99957.31;4862736;29;1048;-66
2021/01/10 00:47:44;;;;;;;;;;;;;;;15.05;58.48;99954.25;4867796;29;1262;-67
2021/01/10 00:50:11;;;;;;;;;;;;;;;15.05;59.01;99965.59;4858976;29;1177;-66
2021/01/10 00:52:37;;;;;;;;;;;;;;;15.08;58.77;99964.56;4860609;29;1235;-66
2021/01/10 00:55:04;;;;;;;;;;;;;;;15.06;58.80;99987.44;4868960;29;1177;-64
2021/01/10 00:57:31;;;;;;;;;;;;;;;15.05;58.85;99976.09;4867170;29;1282;-65
2021/01/10 00:59:57;;;;;;;;;;;;;;;15.08;58.52;99975.91;4861596;29;1981;-65
2021/01/10 01:02:23;;;;;;;;;;;;;;;15.03;58.62;99972.72;4872232;29;1357;-68
2021/01/10 01:04:50;;;;;;;;;;;;;;;15.00;58.56;99965.00;4860201;29;1628;-67
2021/01/10 01:07:16;;;;;;;;;;;;;;;15.05;58.69;99964.75;4866922;29;1369;-66
2021/01/10 01:09:42;;;;;;;;;;;;;;;15.01;58.46;99973.72;4868709;29;1210;-66
2021/01/10 01:12:23;;;;;;;;;;;;;;;15.00;58.87;99964.16;4859996;29;1408;-67
2021/01/10 01:14:49;;;;;;;;;;;;;;;15.01;58.81;99968.47;4870318;29;1148;-66
2021/01/10 01:17:15;;;;;;;;;;;;;;;14.98;58.80;99969.50;4865104;29;1361;-66
2021/01/10 01:19:42;;;;;;;;;;;;;;;14.95;58.67;99988.00;4861487;29;1472;-67
2021/01/10 01:22:08;;;;;;;;;;;;;;;14.97;58.88;99993.16;4872395;29;1918;-68
2021/01/10 01:24:34;;;;;;;;;;;;;;;14.97;58.79;99995.78;4855610;29;1175;-66
2021/01/10 01:27:02;;;;;;;;;;;;;;;14.96;58.90;99991.47;4862084;29;1363;-67
2021/01/10 01:29:28;;;;;;;;;;;;;;;14.91;58.93;99993.50;4864848;29;1245;-68
2021/01/10 01:31:54;;;;;;;;;;;;;;;14.95;59.25;99984.53;4875672;29;1322;-66
2021/01/10 01:34:21;;;;;;;;;;;;;;;14.87;58.77;99971.81;4855325;29;1181;-67
2021/01/10 01:36:47;;;;;;;;;;;;;;;14.89;58.71;99969.13;4857145;29;1067;-67
2021/01/10 01:39:13;;;;;;;;;;;;;;;14.91;58.81;99968.13;4856780;29;1320;-69
2021/01/10 01:47:54;;;;;;;;;;;;;;;14.90;58.59;99981.28;4892771;29;1932;-65
2021/01/10 01:50:21;;;;;;;;;;;;;;;14.86;58.78;99974.53;4893675;29;1057;-67
2021/01/10 01:52:47;;;;;;;;;;;;;;;14.84;58.99;99971.13;4893788;29;1336;-66
2021/01/10 01:55:14;;;;;;;;;;;;;;;14.83;59.12;99982.56;4894195;29;1055;-65
2021/01/10 01:57:41;;;;;;;;;;;;;;;14.80;59.11;99990.59;4893988;29;1230;-67
2021/01/10 02:00:15;;;;;;;;;;;;;;;14.82;58.92;99988.72;4894104;29;1906;-69
2021/01/10 02:02:57;;;;;;;;;;;;;;;14.77;58.89;99994.22;4963036;23;1998;-68
2021/01/10 02:05:26;;;;;;;;;;;;;;;14.83;58.72;100006.16;4855656;29;1042;-69
2021/01/10 02:08:15;;;;;;;;;;;;;;;14.83;58.80;100001.78;4831078;29;2303;-66
2021/01/10 02:11:32;;;;;;;;;;;;;;;14.75;58.40;100007.41;4840027;29;1198;-67
2021/01/10 02:14:05;;;;;;;;;;;;;;;14.76;58.71;100001.25;4856591;29;1343;-66
2021/01/10 02:16:32;;;;;;;;;;;;;;;14.77;58.60;100018.63;4856602;29;835;-64
2021/01/10 02:19:01;;;;;;;;;;;;;;;14.78;58.66;100019.50;4856507;29;1298;-66
2021/01/10 02:21:28;;;;;;;;;;;;;;;14.76;58.77;100018.75;4856778;29;1974;-68
2021/01/10 02:24:00;;;;;;;;;;;;;;;14.74;58.59;100033.72;4856802;29;1238;-67
2021/01/10 02:26:28;;;;;;;;;;;;;;;14.69;58.32;100015.56;4856031;29;1148;-68
2021/01/10 02:28:54;;;;;;;;;;;;;;;14.69;58.82;100014.72;4855357;29;1310;-68
2021/01/10 02:31:22;;;;;;;;;;;;;;;14.70;58.48;100014.66;4857906;29;1504;-68
2021/01/10 02:33:50;;;;;;;;;;;;;;;14.65;58.81;100013.22;4858895;29;1304;-69
2021/01/10 02:36:35;;;;;;;;;;;;;;;14.67;58.84;100006.97;4860450;29;1300;-67
2021/01/10 02:39:16;;;;;;;;;;;;;;;14.65;58.87;100016.66;4843533;29;1254;-67
2021/01/10 02:41:46;;;;;;;;;;;;;;;14.67;58.89;100012.19;4859186;29;1978;-67
2021/01/10 02:44:17;;;;;;;;;;;;;;;14.58;58.97;99990.84;4852451;29;1301;-67
2021/01/10 02:46:45;;;;;;;;;;;;;;;14.62;58.47;100008.94;4858697;29;792;-69
2021/01/10 02:49:15;;;;;;;;;;;;;;;14.67;58.46;100006.09;4858886;29;1221;-68
2021/01/10 02:51:41;;;;;;;;;;;;;;;14.68;58.76;100013.88;4858769;29;752;-69
2021/01/10 02:54:09;;;;;;;;;;;;;;;14.64;58.72;99998.41;4859741;29;1244;-68
2021/01/10 02:56:39;;;;;;;;;;;;;;;14.63;58.56;100000.16;4858510;29;777;-67
2021/01/10 02:59:05;;;;;;;;;;;;;;;14.62;58.43;99995.84;4858394;29;1420;-68
2021/01/10 03:01:32;;;;;;;;;;;;;;;14.65;58.39;99994.88;4842560;29;1978;-68
2021/01/10 03:03:59;;;;;;;;;;;;;;;14.63;58.51;99994.91;4860096;29;1546;-65
2021/01/10 03:06:25;;;;;;;;;;;;;;;14.54;58.22;99995.41;4859355;29;851;-65
2021/01/10 03:08:52;;;;;;;;;;;;;;;14.58;58.79;100001.34;4859403;29;1219;-66
2021/01/10 03:11:18;;;;;;;;;;;;;;;14.58;58.69;99996.09;4859164;29;874;-65
2021/01/10 03:13:45;;;;;;;;;;;;;;;14.60;58.65;99989.84;4859084;29;1199;-66
2021/01/10 03:16:13;;;;;;;;;;;;;;;14.55;58.85;99983.16;4842616;29;1465;-66
2021/01/10 03:18:39;;;;;;;;;;;;;;;14.55;58.91;99986.63;4842696;29;1235;-66
2021/01/10 03:21:06;;;;;;;;;;;;;;;14.58;58.41;99972.50;4858113;29;1911;-67
2021/01/10 03:23:32;;;;;;;;;;;;;;;14.55;58.15;99976.13;4859097;29;1250;-67
2021/01/10 03:25:58;;;;;;;;;;;;;;;14.47;58.74;99970.41;4859518;29;1066;-67
2021/01/10 03:28:25;;;;;;;;;;;;;;;14.53;58.33;99964.03;4857871;29;1202;-67
2021/01/10 03:30:51;;;;;;;;;;;;;;;14.55;58.95;99965.66;4859555;29;1142;-66
2021/01/10 03:33:17;;;;;;;;;;;;;;;14.45;58.18;99967.03;4857833;29;1258;-67
2021/01/10 03:35:43;;;;;;;;;;;;;;;14.49;59.01;99960.72;4858757;29;1085;-66
2021/01/10 03:38:09;;;;;;;;;;;;;;;14.53;58.79;99982.38;4859131;29;1235;-67
2021/01/10 03:40:36;;;;;;;;;;;;;;;14.55;58.77;99967.41;4859449;29;1915;-66
2021/01/10 03:43:02;;;;;;;;;;;;;;;14.50;58.29;99970.25;4858394;29;1323;-67
2021/01/10 03:45:28;;;;;;;;;;;;;;;14.39;58.45;99964.72;4842255;29;1090;-66
2021/01/10 03:47:54;;;;;;;;;;;;;;;14.43;58.33;99981.16;4859048;29;1262;-67
2021/01/10 03:50:21;;;;;;;;;;;;;;;14.45;59.20;99974.91;4873131;29;1290;-67
2021/01/10 03:52:47;;;;;;;;;;;;;;;14.47;58.47;99975.66;4858793;29;1229;-66
2021/01/10 03:55:13;;;;;;;;;;;;;;;14.44;58.38;99982.84;4858839;29;1179;-66
2021/01/10 03:57:39;;;;;;;;;;;;;;;14.42;58.78;99975.06;4858816;29;1231;-66
2021/01/10 04:00:07;;;;;;;;;;;;;;;14.42;58.86;99990.78;4841965;29;1903;-66
2021/01/10 04:02:33;;;;;;;;;;;;;;;14.38;58.74;100002.31;4858473;29;1370;-65
2021/01/10 04:05:00;;;;;;;;;;;;;;;14.39;58.94;100003.19;4858946;29;957;-65
2021/01/10 04:07:27;;;;;;;;;;;;;;;14.47;58.93;99993.19;4858756;29;1234;-66
2021/01/10 04:09:53;;;;;;;;;;;;;;;14.42;58.60;100001.25;4841733;29;1348;-66
2021/01/10 04:12:20;;;;;;;;;;;;;;;14.38;58.55;99998.88;4857398;29;1230;-66
2021/01/10 04:14:46;;;;;;;;;;;;;;;14.41;59.43;100010.03;4858542;29;1030;-66
2021/01/10 04:17:12;;;;;;;;;;;;;;;14.38;59.10;100001.50;4858267;29;1262;-66
2021/01/10 04:19:38;;;;;;;;;;;;;;;14.40;59.00;100007.50;4858465;29;1046;-65
2021/01/10 04:22:04;;;;;;;;;;;;;;;14.31;58.39;100008.78;4858182;29;1907;-66
2021/01/10 04:24:31;;;;;;;;;;;;;;;14.43;58.97;100016.06;4858233;29;1103;-67
2021/01/10 04:26:57;;;;;;;;;;;;;;;14.34;58.77;100008.66;4856795;29;1328;-67
2021/01/10 04:29:23;;;;;;;;;;;;;;;14.39;59.01;100006.66;4856464;29;1026;-66
2021/01/10 04:31:50;;;;;;;;;;;;;;;14.32;58.75;100010.47;4857642;29;1357;-67
2021/01/10 04:34:17;;;;;;;;;;;;;;;14.30;58.58;100017.56;4857845;29;1047;-67
2021/01/10 04:36:43;;;;;;;;;;;;;;;14.31;58.69;100028.91;4857743;29;1050;-66
2021/01/10 04:39:13;;;;;;;;;;;;;;;14.32;58.66;100028.81;4857744;29;1148;-68
2021/01/10 04:41:40;;;;;;;;;;;;;;;14.34;58.58;100027.00;4857522;29;1911;-68
2021/01/10 04:44:06;;;;;;;;;;;;;;;14.36;58.79;100033.00;4857641;29;1250;-68
2021/01/10 04:46:33;;;;;;;;;;;;;;;14.40;58.54;100050.28;4857409;29;1196;-68
2021/01/10 04:48:59;;;;;;;;;;;;;;;14.33;59.06;100048.03;4857089;29;1209;-68
2021/01/10 04:51:26;;;;;;;;;;;;;;;14.26;58.66;100047.44;4840825;29;1307;-67
2021/01/10 04:53:56;;;;;;;;;;;;;;;14.32;58.44;100056.81;4856686;29;1234;-68
2021/01/10 04:59:33;;;;;;;;;;;;;;;14.37;58.90;100044.34;4845088;29;1014;-68
2021/01/10 05:02:31;;;;;;;;;;;;;;;14.35;59.00;100059.31;4866957;23;1920;-66
2021/01/10 05:05:10;;;;;;;;;;;;;;;14.33;58.87;100048.88;4837729;29;1539;-68
2021/01/10 05:08:25;;;;;;;;;;;;;;;14.24;58.85;100052.78;4838406;29;1343;-68
2021/01/10 05:10:52;;;;;;;;;;;;;;;14.36;58.77;100060.97;4822981;29;1415;-68
2021/01/10 05:13:24;;;;;;;;;;;;;;;14.29;58.86;100063.00;5168527;23;1767;-66
2021/01/10 05:15:54;;;;;;;;;;;;;;;14.36;58.93;100067.06;4838647;29;868;-67
2021/01/10 05:18:21;;;;;;;;;;;;;;;14.26;58.79;100068.41;4839028;29;1338;-66
2021/01/10 05:20:51;;;;;;;;;;;;;;;14.24;58.77;100057.16;4838694;29;1978;-67
2021/01/10 05:23:18;;;;;;;;;;;;;;;14.27;58.67;100074.50;4837708;29;1485;-66
2021/01/10 05:26:06;;;;;;;;;;;;;;;14.25;58.63;100077.22;4798997;29;1399;-68
2021/01/10 05:28:34;;;;;;;;;;;;;;;14.27;58.56;100080.59;4859018;24;1821;-66
2021/01/10 05:31:02;;;;;;;;;;;;;;;14.28;58.87;100070.97;4840281;29;1551;-65
2021/01/10 05:33:49;;;;;;;;;;;;;;;14.26;58.50;100084.13;4854731;29;1304;-67
2021/01/10 05:36:26;;;;;;;;;;;;;;;14.20;58.55;100087.03;4855414;29;1569;-66
2021/01/10 05:38:52;;;;;;;;;;;;;;;14.22;58.42;100083.44;4857278;29;1301;-66
2021/01/10 05:41:20;;;;;;;;;;;;;;;14.20;58.59;100089.66;4840134;29;1911;-66
2021/01/10 05:44:00;;;;;;;;;;;;;;;14.22;58.50;100091.31;4840036;29;1368;-65
2021/01/10 05:46:28;;;;;;;;;;;;;;;14.12;58.55;100099.66;4856955;29;1081;-66
2021/01/10 05:48:57;;;;;;;;;;;;;;;14.14;58.61;100097.81;4855625;29;1270;-66
2021/01/10 05:51:32;;;;;;;;;;;;;;;14.19;58.74;100099.28;4825046;29;1189;-64
2021/01/10 05:53:59;;;;;;;;;;;;;;;14.20;58.49;100097.53;4857170;29;1258;-65
2021/01/10 05:56:25;;;;;;;;;;;;;;;14.24;59.13;100091.22;4856740;29;773;-65
2021/01/10 05:58:56;;;;;;;;;;;;;;;14.15;59.27;100103.00;4840254;29;1376;-66
2021/01/10 06:01:22;;;;;;;;;;;;;;;14.19;59.16;100099.28;4856842;29;1970;-66
2021/01/10 06:03:52;;;;;;;;;;;;;;;14.23;58.95;100103.47;4857073;29;1269;-65
2021/01/10 06:06:19;;;;;;;;;;;;;;;14.20;58.71;100105.38;4861484;29;1066;-65
2021/01/10 06:08:46;;;;;;;;;;;;;;;14.23;58.64;100110.47;4831153;29;1305;-67
2021/01/10 06:11:22;;;;;;;;;;;;;;;14.22;58.54;100109.66;4862934;29;827;-68
2021/01/10 06:13:51;;;;;;;;;;;;;;;14.17;58.87;100110.75;4863020;29;1337;-67
2021/01/10 06:16:18;;;;;;;;;;;;;;;14.12;58.85;100111.00;4863253;29;1109;-67
2021/01/10 06:18:46;;;;;;;;;;;;;;;14.08;58.75;100105.97;4863131;29;1289;-68
2021/01/10 06:21:17;;;;;;;;;;;;;;;14.13;59.01;100102.19;4862897;29;1911;-67
2021/01/10 06:23:45;;;;;;;;;;;;;;;14.17;58.91;100102.91;4863470;29;1340;-66
2021/01/10 06:26:16;;;;;;;;;;;;;;;14.18;58.93;100125.56;4863101;29;891;-67
2021/01/10 06:28:45;;;;;;;;;;;;;;;14.18;59.13;100115.94;4863160;29;1636;-67
2021/01/10 06:31:12;;;;;;;;;;;;;;;14.16;58.60;100125.63;4863284;29;827;-66
2021/01/10 06:33:40;;;;;;;;;;;;;;;14.14;58.52;100116.16;4863026;29;1297;-66
2021/01/10 06:36:07;;;;;;;;;;;;;;;14.10;58.83;100122.47;4830788;29;1296;-67
2021/01/10 06:38:34;;;;;;;;;;;;;;;14.12;59.17;100118.00;4863199;29;1280;-67
2021/01/10 06:41:19;;;;;;;;;;;;;;;14.11;58.82;100121.53;4862995;29;1907;-67
2021/01/10 06:43:49;;;;;;;;;;;;;;;14.14;59.07;100129.25;4861679;29;1368;-67
2021/01/10 06:46:16;;;;;;;;;;;;;;;14.16;58.87;100137.91;4862849;29;1070;-66
2021/01/10 06:48:42;;;;;;;;;;;;;;;14.06;58.73;100139.25;4863214;29;1302;-66
2021/01/10 06:51:09;;;;;;;;;;;;;;;14.11;59.05;100145.09;4846214;29;804;-66
2021/01/10 06:53:38;;;;;;;;;;;;;;;14.06;59.31;100144.47;4846438;29;1290;-65
2021/01/10 06:56:05;;;;;;;;;;;;;;;14.08;58.89;100147.88;4862760;29;1088;-65
2021/01/10 06:58:31;;;;;;;;;;;;;;;14.06;58.59;100160.19;4862808;29;1404;-67
2021/01/10 07:00:58;;;;;;;;;;;;;;;14.10;58.82;100161.75;4862191;29;1907;-65
2021/01/10 07:03:25;;;;;;;;;;;;;;;14.07;59.00;100167.16;4845936;29;1453;-65
2021/01/10 07:05:58;;;;;;;;;;;;;;;14.05;58.81;100163.72;4862448;29;866;-67
2021/01/10 07:08:30;;;;;;;;;;;;;;;14.04;58.54;100180.38;4862587;29;1293;-66
2021/01/10 07:11:17;;;;;;;;;;;;;;;14.07;59.00;100175.00;4862721;29;1046;-66
2021/01/10 07:13:43;;;;;;;;;;;;;;;14.07;58.73;100177.63;4862913;29;1287;-66
2021/01/10 07:16:16;;;;;;;;;;;;;;;14.01;58.23;100186.56;4862364;29;805;-66
2021/01/10 07:18:53;;;;;;;;;;;;;;;14.07;58.91;100175.00;4826957;29;1291;-66
2021/01/10 07:21:31;;;;;;;;;;;;;;;14.09;59.19;100170.53;4859745;29;1911;-66
2021/01/10 07:24:13;;;;;;;;;;;;;;;14.06;59.29;100176.75;4843309;29;1282;-65
2021/01/10 07:26:42;;;;;;;;;;;;;;;13.98;58.61;100178.88;4842980;29;1125;-66
2021/01/10 07:29:27;;;;;;;;;;;;;;;13.99;58.87;100177.97;4859297;29;1375;-66
2021/01/10 07:32:00;;;;;;;;;;;;;;;14.00;58.97;100181.44;4859289;29;1321;-66
2021/01/10 07:34:30;;;;;;;;;;;;;;;14.04;58.84;100177.75;4859336;29;878;-66
2021/01/10 07:37:01;;;;;;;;;;;;;;;14.05;58.98;100192.53;4859564;29;1262;-66
2021/01/10 07:39:28;;;;;;;;;;;;;;;14.02;59.22;100185.66;4859352;29;781;-65
2021/01/10 07:42:13;;;;;;;;;;;;;;;14.02;59.06;100190.06;4859057;29;1907;-65
2021/01/10 07:44:50;;;;;;;;;;;;;;;13.98;58.22;100194.56;4859034;29;832;-65
2021/01/10 07:47:17;;;;;;;;;;;;;;;13.96;59.06;100193.81;4859135;29;1291;-65
2021/01/10 07:49:49;;;;;;;;;;;;;;;13.97;58.72;100202.53;4857719;29;1230;-65
2021/01/10 07:52:16;;;;;;;;;;;;;;;14.00;58.95;100207.63;4859211;29;1361;-65
2021/01/10 07:54:50;;;;;;;;;;;;;;;14.01;58.70;100211.94;4859053;29;776;-66
2021/01/10 07:57:23;;;;;;;;;;;;;;;14.03;58.34;100210.94;4858930;29;1313;-65
2021/01/10 08:00:08;;;;;;;;;;;;;;;13.98;58.57;100215.53;4858698;29;809;-65
2021/01/10 08:02:51;;;;;;;;;;;;;;;14.01;58.81;100225.88;4858801;29;1978;-65
2021/01/10 08:05:26;;;;;;;;;;;;;;;14.03;58.96;100225.81;4858735;29;923;-66
2021/01/10 08:07:53;;;;;;;;;;;;;;;13.95;58.61;100238.41;4858999;29;1289;-66
2021/01/10 08:10:20;;;;;;;;;;;;;;;13.98;58.82;100244.34;4859130;29;725;-67
2021/01/10 08:12:46;;;;;;;;;;;;;;;13.94;58.47;100247.16;4842180;29;1332;-66
2021/01/10 08:15:13;;;;;;;;;;;;;;;13.98;58.67;100260.03;4858375;29;963;-66
2021/01/10 08:17:39;;;;;;;;;;;;;;;13.98;58.61;100252.19;4858485;29;1400;-65
2021/01/10 08:20:06;;;;;;;;;;;;;;;13.96;58.85;100263.66;4842169;29;766;-64
2021/01/10 08:22:33;;;;;;;;;;;;;;;13.98;59.00;100261.84;4858147;29;1915;-64
2021/01/10 08:25:03;;;;;;;;;;;;;;;14.03;59.72;100262.47;4858217;29;828;-65
2021/01/10 08:27:29;;;;;;;;;;;;;;;14.01;59.64;100266.94;4857951;29;1677;-65
2021/01/10 08:29:56;;;;;;;;;;;;;;;14.00;59.64;100273.09;4841693;29;781;-64
2021/01/10 08:32:23;;;;;;;;;;;;;;;14.02;59.99;100269.47;4858157;29;1205;-65
2021/01/10 08:34:56;;;;;;;;;;;;;;;14.07;60.17;100275.34;4858040;29;785;-64
2021/01/10 08:37:23;;;;;;;;;;;;;;;14.04;59.80;100282.53;4858269;29;1362;-65
2021/01/10 08:40:04;;;;;;;;;;;;;;;14.01;60.00;100283.47;4858391;29;760;-66
2021/01/10 08:42:30;;;;;;;;;;;;;;;14.02;59.71;100279.94;4857894;29;1911;-67
2021/01/10 08:45:16;;;;;;;;;;;;;;;14.02;59.93;100281.72;4841299;29;1218;-67
2021/01/10 08:47:43;;;;;;;;;;;;;;;14.01;59.68;100290.50;4857699;29;1297;-67
2021/01/10 08:50:11;;;;;;;;;;;;;;;14.12;60.08;100290.88;4841388;29;831;-64
2021/01/10 08:52:51;;;;;;;;;;;;;;;14.03;59.39;100296.53;4858082;29;1262;-63
2021/01/10 08:55:17;;;;;;;;;;;;;;;13.95;60.07;100293.41;4858021;29;847;-63
2021/01/10 08:57:43;;;;;;;;;;;;;;;13.94;60.41;100310.00;4857774;29;1278;-64
2021/01/10 09:00:10;;;;;;;;;;;;;;;13.94;60.28;100296.94;4857775;29;858;-65
2021/01/10 09:02:37;;;;;;;;;;;;;;;13.92;60.06;100314.47;4857724;29;1926;-65
2021/01/10 09:05:04;;;;;;;;;;;;;;;13.88;60.46;100318.13;4857479;29;851;-65
2021/01/10 09:07:33;;;;;;;;;;;;;;;13.99;60.17;100311.50;4857555;29;1307;-65
2021/01/10 09:10:04;;;;;;;;;;;;;;;14.06;60.18;100317.34;4858976;29;1776;-66
2021/01/10 09:12:34;;;;;;;;;;;;;;;14.06;59.76;100331.28;4853714;29;1364;-66
2021/01/10 09:15:03;;;;;;;;;;;;;;;14.13;59.34;100340.56;4870379;29;1091;-63
2021/01/10 09:17:34;;;;;;;;;;;;;;;14.22;58.90;100347.19;4861971;29;1543;-64
2021/01/10 09:20:09;;;;;;;;;;;;;;;14.36;58.56;100350.06;4868028;29;1372;-64
2021/01/10 09:22:35;;;;;;;;;;;;;;;14.49;58.88;100353.84;4862468;29;1915;-63
2021/01/10 09:25:22;;;;;;;;;;;;;;;14.59;58.77;100341.16;4869417;29;1118;-65
2021/01/10 09:28:06;;;;;;;;;;;;;;;14.71;58.19;100351.91;4867023;29;1456;-65
2021/01/10 09:30:32;;;;;;;;;;;;;;;14.84;58.04;100364.47;4855523;29;808;-65
2021/01/10 09:33:00;;;;;;;;;;;;;;;14.93;57.95;100354.38;4853831;29;1265;-64
2021/01/10 09:35:26;;;;;;;;;;;;;;;15.03;57.68;100363.53;4855610;29;823;-62
2021/01/10 09:37:53;;;;;;;;;;;;;;;15.09;57.51;100370.25;4854672;29;1539;-63
2021/01/10 09:40:19;;;;;;;;;;;;;;;15.20;57.36;100383.72;4852745;29;1208;-65
2021/01/10 09:42:47;;;;;;;;;;;;;;;15.31;57.28;100397.19;4853680;29;1989;-64
2021/01/10 09:45:15;;;;;;;;;;;;;;;15.31;57.00;100399.81;4853152;29;1789;-64
2021/01/10 09:47:48;;;;;;;;;;;;;;;15.35;56.76;100403.13;4854048;29;1351;-65
2021/01/10 09:50:16;;;;;;;;;;;;;;;15.38;56.69;100400.38;4838100;29;1311;-66
2021/01/10 09:52:45;;;;;;;;;;;;;;;15.39;56.62;100389.78;4838121;29;1377;-61
2021/01/10 09:55:14;;;;;;;;;;;;;;;15.43;56.44;100393.97;4847921;29;1623;-61
2021/01/10 09:57:41;;;;;;;;;;;;;;;15.46;56.41;100412.19;4853590;29;1380;-64
2021/01/10 10:00:13;;;;;;;;;;;;;;;15.49;56.38;100391.06;4838636;29;1269;-64
2021/01/10 10:02:40;;;;;;;;;;;;;;;15.54;56.14;100407.44;4838196;29;1915;-64
2021/01/10 10:05:17;;;;;;;;;;;;;;;15.55;55.82;100406.53;4854541;29;755;-64
2021/01/10 10:07:45;;;;;;;;;;;;;;;15.57;55.92;100414.31;4854464;29;1217;-65
2021/01/10 10:10:17;;;;;;;;;;;;;;;15.60;55.88;100419.41;4853354;29;812;-65
2021/01/10 10:13:13;;;;;;;;;;;;;;;15.65;55.50;100428.78;4837404;29;1290;-64
2021/01/10 10:15:42;;;;;;;;;;;;;;;15.63;55.54;100422.75;4838716;29;949;-64
2021/01/10 10:18:16;;;;;;;;;;;;;;;15.66;55.92;100433.09;4854388;29;1356;-63
2021/01/10 10:20:46;;;;;;;;;;;;;;;15.67;55.68;100431.31;4854499;29;804;-64
2021/01/10 10:23:13;;;;;;;;;;;;;;;15.71;55.41;100430.25;4853984;29;1362;-64
2021/01/10 10:25:40;;;;;;;;;;;;;;;15.70;55.54;100432.03;4855117;29;1090;-63
2021/01/10 10:28:07;;;;;;;;;;;;;;;15.72;55.63;100434.56;4853374;29;1654;-64
2021/01/10 10:30:35;;;;;;;;;;;;;;;15.75;55.43;100429.16;4853126;29;1587;-65
2021/01/10 10:33:16;;;;;;;;;;;;;;;15.76;55.64;100433.50;4828492;29;1516;-64
2021/01/10 10:35:43;;;;;;;;;;;;;;;15.81;55.46;100434.13;4853944;29;1022;-68
2021/01/10 10:38:18;;;;;;;;;;;;;;;15.81;55.48;100439.38;4852821;29;1525;-66
2021/01/10 10:40:45;;;;;;;;;;;;;;;15.81;55.50;100440.22;4838756;29;776;-65
2021/01/10 10:43:11;;;;;;;;;;;;;;;15.83;55.54;100437.53;4838928;29;1282;-66
2021/01/10 10:45:37;;;;;;;;;;;;;;;15.87;55.72;100430.34;4843757;29;1080;-65
2021/01/10 10:48:04;;;;;;;;;;;;;;;15.85;55.54;100431.28;4854949;29;1607;-63
2021/01/10 10:50:31;;;;;;;;;;;;;;;15.85;55.61;100436.53;4839650;29;859;-63
2021/01/10 10:52:57;;;;;;;;;;;;;;;15.85;55.14;100420.78;4839735;29;1382;-66
2021/01/10 10:55:26;;;;;;;;;;;;;;;15.85;55.53;100423.41;4858676;29;900;-65
2021/01/10 10:57:53;;;;;;;;;;;;;;;15.84;55.81;100432.19;4840562;29;1378;-65
2021/01/10 11:00:20;;;;;;;;;;;;;;;15.84;55.59;100424.31;4856463;29;1024;-65
2021/01/10 11:02:52;;;;;;;;;;;;;;;15.84;55.67;100408.56;4825847;29;1904;-64
2021/01/10 11:05:25;;;;;;;;;;;;;;;15.86;55.81;100424.25;4841235;29;1536;-66
2021/01/10 11:07:52;;;;;;;;;;;;;;;15.82;55.96;100415.66;4841113;29;1462;-66
2021/01/10 11:10:19;;;;;;;;;;;;;;;15.85;55.73;100407.63;4858240;29;1085;-64
2021/01/10 11:12:45;;;;;;;;;;;;;;;15.88;55.93;100429.41;4857083;29;1304;-67
2021/01/10 11:15:15;;;;;;;;;;;;;;;15.89;55.97;100420.63;4856299;29;1061;-67
2021/01/10 11:17:41;;;;;;;;;;;;;;;15.83;55.72;100406.88;4854587;29;1199;-63
2021/01/10 11:20:08;;;;;;;;;;;;;;;15.88;56.12;100409.25;4840869;29;1390;-64
2021/01/10 11:22:35;;;;;;;;;;;;;;;15.90;56.17;100412.63;4857397;29;1951;-65
2021/01/10 11:25:05;;;;;;;;;;;;;;;15.90;56.18;100409.19;4840939;29;1170;-65
2021/01/10 11:27:31;;;;;;;;;;;;;;;15.89;56.40;100415.38;4856846;29;1676;-66
2021/01/10 11:29:58;;;;;;;;;;;;;;;15.92;55.85;100420.47;4857263;29;1073;-66
2021/01/10 11:32:24;;;;;;;;;;;;;;;15.92;56.23;100423.09;4857362;29;1219;-67
2021/01/10 11:34:50;;;;;;;;;;;;;;;15.90;56.38;100425.78;4857728;29;1192;-67
2021/01/10 11:37:17;;;;;;;;;;;;;;;15.90;56.70;100435.47;4841300;29;1485;-67
2021/01/10 11:39:43;;;;;;;;;;;;;;;15.89;56.69;100433.75;4857554;29;901;-67
2021/01/10 11:42:13;;;;;;;;;;;;;;;15.94;56.38;100443.09;4857925;29;1907;-66
2021/01/10 11:44:42;;;;;;;;;;;;;;;15.97;56.34;100436.84;4857663;29;1354;-67
2021/01/10 11:47:08;;;;;;;;;;;;;;;16.01;56.41;100438.38;4840730;29;1243;-68
2021/01/10 11:49:38;;;;;;;;;;;;;;;15.95;56.79;100436.06;4857556;29;1047;-66
2021/01/10 11:52:04;;;;;;;;;;;;;;;16.00;56.42;100429.66;4857727;29;1365;-66
2021/01/10 11:54:30;;;;;;;;;;;;;;;16.00;56.76;100437.53;4840868;29;816;-67
2021/01/10 11:56:56;;;;;;;;;;;;;;;16.07;56.77;100440.72;4862061;29;1658;-68
2021/01/10 11:59:22;;;;;;;;;;;;;;;16.07;56.89;100431.06;4857251;29;1318;-70
2021/01/10 12:01:49;;;;;;;;;;;;;;;16.06;56.88;100425.84;4856206;29;2082;-69
2021/01/10 12:04:15;;;;;;;;;;;;;;;16.06;57.05;100429.34;4840126;29;903;-69
2021/01/10 12:06:41;;;;;;;;;;;;;;;16.02;56.83;100422.53;4840505;29;1168;-67
2021/01/10 12:09:10;;;;;;;;;;;;;;;16.04;56.91;100419.84;4857016;29;1301;-67
2021/01/10 12:11:41;;;;;;;;;;;;;;;16.02;57.08;100417.28;4855587;29;1073;-68
2021/01/10 12:14:15;;;;;;;;;;;;;;;15.98;56.88;100397.38;4857230;29;1250;-68
2021/01/10 12:16:44;;;;;;;;;;;;;;;16.00;56.74;100411.25;4839526;29;1353;-69
2021/01/10 12:19:10;;;;;;;;;;;;;;;16.00;57.43;100410.41;4856729;29;1160;-68
2021/01/10 12:21:37;;;;;;;;;;;;;;;15.99;57.15;100406.91;4856108;29;1986;-69
2021/01/10 12:24:03;;;;;;;;;;;;;;;15.98;57.34;100412.28;4856399;29;1235;-69
2021/01/10 12:26:30;;;;;;;;;;;;;;;15.99;57.60;100419.22;4855898;29;1054;-69
2021/01/10 12:28:56;;;;;;;;;;;;;;;15.95;57.64;100418.53;4856665;29;1732;-69
2021/01/10 12:31:25;;;;;;;;;;;;;;;15.92;57.71;100410.81;4856462;29;1274;-67
2021/01/10 12:33:59;;;;;;;;;;;;;;;15.91;57.88;100413.50;4855207;29;1263;-69
2021/01/10 12:36:26;;;;;;;;;;;;;;;15.88;58.08;100419.75;4855370;29;1311;-69
2021/01/10 12:38:53;;;;;;;;;;;;;;;15.88;58.22;100426.78;4856716;29;1156;-69
2021/01/10 12:41:19;;;;;;;;;;;;;;;15.87;58.15;100427.72;4856913;29;1912;-68
2021/01/10 12:43:45;;;;;;;;;;;;;;;15.88;58.50;100424.16;4857063;29;1187;-69
2021/01/10 12:46:11;;;;;;;;;;;;;;;15.89;58.92;100425.88;4856886;29;1151;-69
2021/01/10 12:49:10;;;;;;;;;;;;;;;15.89;59.59;100421.47;4839687;29;1285;-71
2021/01/10 12:51:54;;;;;;;;;;;;;;;15.99;61.53;100429.75;4839297;29;1349;-67
2021/01/10 12:54:20;;;;;;;;;;;;;;;15.99;59.56;100435.00;4858468;29;1064;-70
2021/01/10 12:56:48;;;;;;;;;;;;;;;15.98;60.94;100417.53;4870069;29;1131;-71
2021/01/10 12:59:14;;;;;;;;;;;;;;;15.99;61.42;100408.72;4858658;29;1405;-66
2021/01/10 13:01:40;;;;;;;;;;;;;;;16.25;61.17;100435.38;4856141;29;1911;-66
2021/01/10 13:04:06;;;;;;;;;;;;;;;16.23;61.88;100433.75;4872525;29;1218;-66
2021/01/10 13:06:35;;;;;;;;;;;;;;;16.24;61.82;100430.19;4856409;29;1074;-65
2021/01/10 13:09:01;;;;;;;;;;;;;;;16.28;63.49;100444.88;4856095;29;1207;-62
2021/01/10 13:11:58;;;;;;;;;;;;;;;16.41;63.24;100440.69;4863510;29;1116;-65